Time;durP1;ratioP1;P1;durP2;ratioP2;P2;SDS_P1;SDS_P2;PMS_P1;PMS_P2;Temp;Humidity;BMP_temperature;BMP_pressure;BME280_temperature;BME280_humidity;BME280_pressure;Samples;Min_cycle;Max_cycle;Signal;HPM_P1;HPM_P2
2024/04/19 00:00:10;;;;;;;3.08;1.08;;;7.60;99.90;;;;;;5435875;26;20006;-76
2024/04/19 00:02:39;;;;;;;3.47;1.00;;;7.60;99.90;;;;;;5406098;26;20843;-76
2024/04/19 00:05:08;;;;;;;4.95;1.20;;;7.60;99.90;;;;;;5397158;26;20690;-76
2024/04/19 00:07:34;;;;;;;5.18;2.20;;;7.60;99.90;;;;;;5423904;26;20069;-76
2024/04/19 00:10:01;;;;;;;4.55;1.80;;;7.60;99.90;;;;;;5360380;26;20017;-75
2024/04/19 00:12:27;;;;;;;5.25;1.90;;;7.60;99.90;;;;;;5413400;26;20002;-76
2024/04/19 00:14:54;;;;;;;6.22;2.40;;;7.50;99.90;;;;;;5390740;26;20463;-76
2024/04/19 00:17:20;;;;;;;7.55;2.58;;;7.50;99.90;;;;;;5453735;26;20006;-76
2024/04/19 00:19:46;;;;;;;3.88;2.22;;;7.50;99.90;;;;;;5435578;26;20008;-76
2024/04/19 00:22:13;;;;;;;6.80;2.75;;;7.50;99.90;;;;;;5438962;26;20459;-75
2024/04/19 00:24:40;;;;;;;5.72;2.20;;;7.50;99.90;;;;;;5425233;26;20373;-76
2024/04/19 00:27:06;;;;;;;7.50;2.95;;;7.50;99.90;;;;;;5449742;26;20051;-76
2024/04/19 00:29:44;;;;;;;8.70;6.22;;;7.50;99.90;;;;;;5420643;26;20017;-76
2024/04/19 00:32:11;;;;;;;9.02;3.72;;;7.60;99.90;;;;;;5419302;26;20012;-76
2024/04/19 00:34:37;;;;;;;6.03;3.35;;;7.50;99.90;;;;;;5391266;26;20020;-75
2024/04/19 00:37:04;;;;;;;9.20;3.55;;;7.50;99.90;;;;;;5425605;26;19998;-76
2024/04/19 00:39:31;;;;;;;4.40;2.60;;;7.50;99.90;;;;;;5439107;26;21956;-75
2024/04/19 00:41:57;;;;;;;6.32;3.60;;;7.60;99.90;;;;;;5403850;26;20357;-76
2024/04/19 00:44:23;;;;;;;8.35;3.80;;;7.60;99.90;;;;;;5390741;26;20020;-76
2024/04/19 00:46:50;;;;;;;6.82;3.67;;;7.60;99.90;;;;;;5422080;26;20009;-77
2024/04/19 00:49:32;;;;;;;11.90;5.15;;;7.50;99.90;;;;;;5387171;26;19998;-77
2024/04/19 00:51:59;;;;;;;6.50;4.28;;;7.50;99.90;;;;;;5421593;26;20398;-77
2024/04/19 00:54:26;;;;;;;10.52;5.13;;;7.50;99.90;;;;;;5394360;26;20125;-77
2024/04/19 00:56:52;;;;;;;10.20;5.22;;;7.50;99.90;;;;;;5360057;26;19994;-77
2024/04/19 00:59:20;;;;;;;7.75;4.78;;;7.50;99.90;;;;;;5437354;26;20658;-77
2024/04/19 01:01:46;;;;;;;7.57;4.00;;;7.50;99.90;;;;;;5402344;26;20002;-78
2024/04/19 01:04:13;;;;;;;5.82;4.13;;;7.50;99.90;;;;;;5423933;26;20676;-79
2024/04/19 01:06:40;;;;;;;8.60;4.82;;;7.50;99.90;;;;;;5429125;26;20002;-77
2024/04/19 01:09:07;;;;;;;7.30;5.28;;;7.50;99.90;;;;;;5448124;25;20006;-79
2024/04/19 01:11:33;;;;;;;9.18;5.70;;;7.50;99.90;;;;;;5417565;26;20585;-78
2024/04/19 01:14:00;;;;;;;7.25;4.53;;;7.50;99.90;;;;;;5418701;26;20009;-78
2024/04/19 01:16:26;;;;;;;7.43;4.85;;;7.50;99.90;;;;;;5392112;26;20589;-77
2024/04/19 01:18:52;;;;;;;8.98;5.32;;;7.50;99.90;;;;;;5404236;26;20005;-77
2024/04/19 01:21:21;;;;;;;8.90;5.10;;;7.50;99.90;;;;;;5377739;26;20005;-78
2024/04/19 01:23:53;;;;;;;8.80;5.50;;;7.50;99.90;;;;;;5422211;25;19994;-76
2024/04/19 01:26:19;;;;;;;9.93;6.07;;;7.50;99.90;;;;;;5415722;26;20029;-77
2024/04/19 01:28:46;;;;;;;9.75;6.55;;;7.60;99.90;;;;;;5391108;26;20479;-77
2024/04/19 01:31:12;;;;;;;10.23;6.53;;;7.50;99.90;;;;;;5408840;26;19998;-78
2024/04/19 01:33:39;;;;;;;9.75;5.70;;;7.50;99.90;;;;;;5388922;26;20639;-77
2024/04/19 01:36:05;;;;;;;8.07;5.72;;;7.60;99.90;;;;;;5390870;26;20006;-77
2024/04/19 01:38:47;;;;;;;8.35;5.95;;;7.60;99.90;;;;;;5436287;26;20006;-77
2024/04/19 01:41:14;;;;;;;7.68;6.28;;;7.60;99.90;;;;;;5435284;26;20556;-78
2024/04/19 01:43:42;;;;;;;12.13;6.68;;;7.60;99.90;;;;;;5423083;26;20001;-76
2024/04/19 01:46:08;;;;;;;7.00;5.75;;;7.60;99.90;;;;;;5413212;26;20601;-77
2024/04/19 01:48:35;;;;;;;8.85;5.80;;;7.70;99.90;;;;;;5413096;26;20020;-76
2024/04/19 01:51:01;;;;;;;9.00;5.30;;;7.70;99.90;;;;;;5357145;26;20723;-76
2024/04/19 01:53:28;;;;;;;5.80;4.50;;;7.70;99.90;;;;;;5420701;26;21436;-78
2024/04/19 01:55:54;;;;;;;6.38;4.82;;;7.70;99.90;;;;;;5422076;26;20464;-77
2024/04/19 01:58:39;;;;;;;9.18;5.85;;;7.70;99.90;;;;;;5455876;26;20006;-75
2024/04/19 02:01:06;;;;;;;10.35;5.55;;;7.70;99.90;;;;;;5407490;26;20009;-76
2024/04/19 02:03:32;;;;;;;12.75;5.88;;;7.70;99.90;;;;;;5432186;26;20020;-76
2024/04/19 02:06:10;;;;;;;12.73;6.55;;;7.80;99.90;;;;;;5420864;26;20010;-76
2024/04/19 02:08:36;;;;;;;10.32;6.32;;;7.80;99.90;;;;;;5424702;26;20020;-77
2024/04/19 02:11:03;;;;;;;9.82;5.03;;;7.80;99.90;;;;;;5390957;26;20010;-76
2024/04/19 02:13:30;;;;;;;8.68;4.72;;;7.80;99.90;;;;;;5388892;26;20205;-77
2024/04/19 02:15:58;;;;;;;10.23;5.45;;;7.80;99.90;;;;;;5420150;26;20941;-79
2024/04/19 02:18:25;;;;;;;6.60;5.57;;;7.80;99.90;;;;;;5401283;26;20020;-79
2024/04/19 02:20:52;;;;;;;9.43;6.35;;;7.80;99.90;;;;;;5414292;26;20237;-78
2024/04/19 02:23:36;;;;;;;8.68;7.32;;;7.80;99.90;;;;;;5377336;26;20498;-77
2024/04/19 02:26:07;;;;;;;11.38;7.55;;;7.80;99.90;;;;;;5395962;26;20653;-76
2024/04/19 02:31:20;;;;;;;15.90;10.50;;;7.80;99.90;;;;;;5422691;26;20002;-76
2024/04/19 02:33:47;;;;;;;14.57;10.88;;;7.80;99.90;;;;;;5367382;26;20819;-78
2024/04/19 02:36:14;;;;;;;13.00;10.38;;;7.80;99.90;;;;;;5395140;26;20410;-77
2024/04/19 02:38:40;;;;;;;14.95;10.32;;;7.70;99.90;;;;;;5405867;26;20402;-76
2024/04/19 02:41:08;;;;;;;10.95;9.27;;;7.80;99.90;;;;;;5407139;26;20021;-76
2024/04/19 02:43:35;;;;;;;13.13;10.40;;;7.70;99.90;;;;;;5429049;26;20010;-76
2024/04/19 02:46:05;;;;;;;14.00;9.43;;;7.80;99.90;;;;;;5417755;26;20008;-76
2024/04/19 02:48:33;;;;;;;15.57;10.10;;;7.80;99.90;;;;;;5375206;26;20369;-76
2024/04/19 02:51:01;;;;;;;11.18;8.57;;;7.80;99.90;;;;;;5425545;26;20486;-76
2024/04/19 02:53:27;;;;;;;11.80;8.07;;;7.80;99.90;;;;;;5423588;26;19998;-76
2024/04/19 02:55:53;;;;;;;14.10;10.50;;;7.80;99.90;;;;;;5394030;26;20010;-75
2024/04/19 02:58:20;;;;;;;10.85;9.63;;;7.80;99.90;;;;;;5406166;26;20360;-75
2024/04/19 03:00:46;;;;;;;16.52;9.00;;;7.80;99.90;;;;;;5436489;26;20472;-76
2024/04/19 03:03:13;;;;;;;11.15;8.55;;;7.80;99.90;;;;;;5430149;26;20020;-75
2024/04/19 03:05:40;;;;;;;10.48;8.25;;;7.80;99.90;;;;;;5392087;26;20846;-76
2024/04/19 03:08:06;;;;;;;10.38;8.57;;;7.80;99.90;;;;;;5422997;26;20573;-76
2024/04/19 03:10:38;;;;;;;11.75;8.77;;;7.80;99.90;;;;;;5422863;26;20010;-75
2024/04/19 03:13:08;;;;;;;10.27;8.27;;;7.80;99.90;;;;;;5363867;26;20506;-73
2024/04/19 03:15:34;;;;;;;15.43;9.05;;;7.80;99.90;;;;;;5418685;26;19994;-75
2024/04/19 03:18:01;;;;;;;21.13;11.27;;;7.80;99.90;;;;;;5428391;26;19998;-75
2024/04/19 03:20:27;;;;;;;11.20;8.68;;;7.80;99.90;;;;;;5432855;26;20318;-76
2024/04/19 03:22:53;;;;;;;13.02;10.43;;;7.80;99.90;;;;;;5400597;26;20124;-74
2024/04/19 03:25:20;;;;;;;12.02;9.75;;;7.80;99.90;;;;;;5387338;26;20832;-76
2024/04/19 03:27:48;;;;;;;13.95;10.65;;;7.80;99.90;;;;;;5389172;26;20033;-76
2024/04/19 03:30:25;;;;;;;12.77;10.30;;;7.80;99.90;;;;;;5394712;26;20021;-74
2024/04/19 03:32:52;;;;;;;13.80;10.77;;;7.80;99.90;;;;;;5389907;26;20006;-76
2024/04/19 03:35:18;;;;;;;12.20;10.55;;;7.80;99.90;;;;;;5394473;26;20002;-75
2024/04/19 03:37:45;;;;;;;13.38;11.43;;;7.80;99.90;;;;;;5406343;26;20305;-75
2024/04/19 03:40:12;;;;;;;11.77;10.57;;;7.90;99.90;;;;;;5438319;26;20353;-75
2024/04/19 03:42:45;;;;;;;13.90;10.45;;;7.80;99.90;;;;;;5369128;26;19998;-77
2024/04/19 03:47:57;;;;;;;11.73;10.13;;;7.80;99.90;;;;;;5423246;26;19998;-76
2024/04/19 03:50:23;;;;;;;10.88;9.70;;;7.80;99.90;;;;;;5361991;26;20017;-76
2024/04/19 03:52:50;;;;;;;11.50;10.35;;;7.80;99.90;;;;;;5364756;26;20006;-78
2024/04/19 03:55:16;;;;;;;12.10;9.52;;;7.90;99.90;;;;;;5402414;26;20022;-77
2024/04/19 03:57:42;;;;;;;16.60;9.85;;;7.80;99.90;;;;;;5408237;26;20009;-75
2024/04/19 04:00:09;;;;;;;18.38;13.30;;;7.80;99.90;;;;;;5437230;26;20009;-77
2024/04/19 04:02:41;;;;;;;;;;;7.90;99.90;;;;;;5422760;26;20016;-75
2024/04/19 04:05:08;;;;;;;14.38;11.75;;;7.80;99.90;;;;;;5392153;26;19932;-77
2024/04/19 04:07:34;;;;;;;14.15;12.60;;;7.80;99.90;;;;;;5391788;26;20013;-75
2024/04/19 04:10:00;;;;;;;13.55;12.15;;;7.80;99.90;;;;;;5419850;26;20007;-75
2024/04/19 04:12:29;;;;;;;13.98;12.40;;;7.80;99.90;;;;;;5363557;26;20013;-75
2024/04/19 04:14:55;;;;;;;16.45;13.80;;;7.80;99.90;;;;;;5399176;26;19998;-75
2024/04/19 04:17:22;;;;;;;14.63;12.80;;;7.80;99.90;;;;;;5384248;26;20002;-76
2024/04/19 04:19:48;;;;;;;17.08;15.27;;;7.80;99.90;;;;;;5430262;26;20006;-75
2024/04/19 04:22:15;;;;;;;15.85;14.18;;;7.80;99.90;;;;;;5388688;26;20017;-76
2024/04/19 04:24:41;;;;;;;15.85;14.10;;;7.90;99.90;;;;;;5418375;26;20365;-77
2024/04/19 04:27:08;;;;;;;14.43;12.90;;;7.90;99.90;;;;;;5417796;26;20021;-76
2024/04/19 04:29:34;;;;;;;13.40;12.15;;;7.90;99.90;;;;;;5392359;26;20003;-76
2024/04/19 04:32:01;;;;;;;14.30;12.90;;;7.90;99.90;;;;;;5420685;26;20006;-76
2024/04/19 04:34:27;;;;;;;15.35;13.75;;;7.90;99.90;;;;;;5402390;26;20017;-74
2024/04/19 04:36:53;;;;;;;15.05;13.55;;;7.90;99.90;;;;;;5374323;26;20006;-77
2024/04/19 04:39:20;;;;;;;15.50;13.88;;;7.90;99.90;;;;;;5427803;26;20805;-78
2024/04/19 04:41:46;;;;;;;16.40;13.90;;;7.90;99.90;;;;;;5418190;26;20014;-76
2024/04/19 04:44:14;;;;;;;15.18;13.57;;;8.00;99.90;;;;;;5411367;26;20006;-75
2024/04/19 04:46:41;;;;;;;15.32;13.73;;;8.00;99.90;;;;;;5362293;26;19999;-76
2024/04/19 04:49:09;;;;;;;13.90;12.48;;;8.00;99.90;;;;;;5362526;26;20006;-76
2024/04/19 04:51:36;;;;;;;13.50;12.10;;;8.00;99.90;;;;;;5421197;26;20875;-77
2024/04/19 04:54:03;;;;;;;15.77;14.13;;;8.00;99.90;;;;;;5405530;26;20124;-77
2024/04/19 04:56:29;;;;;;;14.95;13.45;;;8.00;99.90;;;;;;5428924;26;20006;-76
2024/04/19 04:58:55;;;;;;;13.30;12.00;;;8.00;99.90;;;;;;5428381;26;20011;-76
2024/04/19 05:01:22;;;;;;;13.38;12.07;;;8.10;99.90;;;;;;5387362;26;20010;-77
2024/04/19 05:03:49;;;;;;;12.27;11.07;;;8.10;99.90;;;;;;5421122;26;20013;-79
2024/04/19 05:06:16;;;;;;;11.70;10.40;;;8.10;99.90;;;;;;5416671;26;20006;-78
2024/04/19 05:08:43;;;;;;;10.88;9.77;;;8.10;99.90;;;;;;5391620;26;20005;-78
2024/04/19 05:11:09;;;;;;;12.50;11.23;;;8.20;99.90;;;;;;5390965;26;20010;-79
2024/04/19 05:13:35;;;;;;;11.77;10.05;;;8.20;99.90;;;;;;5399681;26;20012;-78
2024/04/19 05:16:03;;;;;;;11.77;10.55;;;8.20;99.90;;;;;;5437633;26;20006;-76
2024/04/19 05:18:29;;;;;;;11.25;10.05;;;8.20;99.90;;;;;;5372635;26;20129;-78
2024/04/19 05:20:56;;;;;;;10.57;9.50;;;8.30;99.90;;;;;;5395225;26;20015;-76
2024/04/19 05:23:22;;;;;;;13.25;11.95;;;8.30;99.90;;;;;;5392899;26;20441;-78
2024/04/19 05:25:50;;;;;;;10.40;9.40;;;8.30;99.90;;;;;;5417249;26;20002;-78
2024/04/19 05:28:18;;;;;;;10.57;9.52;;;8.40;99.90;;;;;;5390496;26;20021;-77
2024/04/19 05:30:44;;;;;;;10.32;9.27;;;8.40;99.90;;;;;;5392396;26;20002;-78
2024/04/19 05:33:10;;;;;;;9.50;8.60;;;8.40;99.90;;;;;;5455923;26;20006;-81
2024/04/19 05:35:37;;;;;;;11.02;9.93;;;8.50;99.90;;;;;;5407948;26;20028;-77
2024/04/19 05:38:03;;;;;;;11.23;10.02;;;8.50;99.90;;;;;;5421070;26;20014;-77
2024/04/19 05:40:30;;;;;;;12.05;10.73;;;8.50;99.90;;;;;;5419149;26;20375;-77
2024/04/19 05:42:56;;;;;;;11.27;10.18;;;8.60;99.90;;;;;;5390204;26;19998;-80
2024/04/19 05:45:22;;;;;;;15.43;13.27;;;8.60;99.90;;;;;;5449028;25;19998;-79
2024/04/19 05:47:49;;;;;;;13.70;12.25;;;8.60;99.90;;;;;;5420353;26;20020;-79
2024/04/19 05:50:15;;;;;;;14.10;12.13;;;8.70;99.90;;;;;;5421241;26;20012;-79
2024/04/19 05:52:43;;;;;;;15.18;13.25;;;8.70;99.90;;;;;;5403649;26;20016;-77
2024/04/19 05:55:09;;;;;;;13.63;11.45;;;8.80;99.90;;;;;;5490734;25;20002;-78
2024/04/19 05:57:36;;;;;;;13.93;11.52;;;8.80;99.90;;;;;;5400518;26;20011;-78
2024/04/19 06:00:03;;;;;;;10.98;9.45;;;8.80;99.90;;;;;;5416751;26;20006;-78
2024/04/19 06:02:39;;;;;;;11.63;10.43;;;8.90;99.90;;;;;;5417881;26;20005;-78
2024/04/19 06:05:08;;;;;;;12.02;9.60;;;9.00;99.90;;;;;;5392113;26;20003;-77
2024/04/19 06:07:34;;;;;;;9.73;8.73;;;9.00;99.90;;;;;;5391668;26;20003;-77
2024/04/19 06:10:04;;;;;;;9.95;8.70;;;9.00;99.90;;;;;;5394691;26;20002;-76
2024/04/19 06:12:32;;;;;;;11.65;8.50;;;9.10;99.90;;;;;;5430647;26;20021;-77
2024/04/19 06:14:59;;;;;;;8.65;7.70;;;9.10;99.90;;;;;;5438302;26;20010;-77
2024/04/19 06:17:25;;;;;;;12.32;10.18;;;9.20;99.90;;;;;;5399690;26;19998;-81
2024/04/19 06:19:52;;;;;;;13.45;9.43;;;9.20;99.90;;;;;;5387361;26;20017;-80
2024/04/19 06:22:18;;;;;;;10.18;8.10;;;9.20;99.90;;;;;;5357276;26;20354;-80
2024/04/19 06:24:44;;;;;;;15.02;10.88;;;9.30;99.90;;;;;;5419325;26;20657;-81
2024/04/19 06:27:12;;;;;;;15.73;9.98;;;9.30;99.90;;;;;;5390075;26;20005;-79
2024/04/19 06:29:39;;;;;;;12.55;7.60;;;9.30;99.90;;;;;;5421847;26;21742;-77
2024/04/19 06:32:05;;;;;;;15.68;7.57;;;9.30;99.90;;;;;;5434745;26;20018;-78
2024/04/19 06:34:32;;;;;;;10.75;6.35;;;9.30;99.90;;;;;;5487736;25;20012;-79
2024/04/19 06:36:58;;;;;;;12.60;6.45;;;9.30;99.90;;;;;;5386913;26;20017;-80
2024/04/19 06:39:27;;;;;;;15.88;8.32;;;9.30;99.90;;;;;;5469865;25;20016;-84
2024/04/19 06:41:54;;;;;;;11.60;8.05;;;9.50;99.90;;;;;;5417059;26;20054;-76
2024/04/19 06:44:20;;;;;;;14.40;7.85;;;9.50;99.90;;;;;;5440993;26;20025;-80
2024/04/19 06:46:47;;;;;;;14.75;8.02;;;9.60;99.90;;;;;;5385636;26;20684;-77
2024/04/19 06:49:13;;;;;;;14.82;8.18;;;9.60;99.90;;;;;;5393207;26;20470;-76
2024/04/19 06:51:40;;;;;;;13.75;7.07;;;9.70;99.90;;;;;;5404407;26;20065;-76
2024/04/19 06:54:07;;;;;;;17.83;9.63;;;9.80;99.90;;;;;;5401334;26;20006;-76
2024/04/19 06:56:33;;;;;;;14.25;8.73;;;9.90;99.90;;;;;;5390027;26;20010;-77
2024/04/19 06:59:00;;;;;;;18.58;9.20;;;10.00;99.90;;;;;;5414178;26;20350;-77
2024/04/19 07:01:26;;;;;;;15.38;8.75;;;10.10;99.90;;;;;;5416572;26;20014;-78
2024/04/19 07:03:52;;;;;;;16.98;7.75;;;10.10;99.90;;;;;;5417550;26;20337;-77
2024/04/19 07:06:19;;;;;;;16.15;6.70;;;10.20;99.90;;;;;;5419943;26;20165;-80
2024/04/19 07:08:45;;;;;;;11.50;6.25;;;10.20;99.90;;;;;;5449171;25;20003;-77
2024/04/19 07:11:11;;;;;;;13.18;6.15;;;10.30;99.90;;;;;;5425002;26;20360;-77
2024/04/19 07:13:38;;;;;;;14.63;6.18;;;10.30;99.90;;;;;;5437370;26;20005;-78
2024/04/19 07:16:05;;;;;;;14.07;5.25;;;10.40;99.90;;;;;;5400312;26;20006;-79
2024/04/19 07:18:31;;;;;;;12.25;4.60;;;10.40;99.90;;;;;;5388016;26;20006;-79
2024/04/19 07:20:58;;;;;;;14.30;4.20;;;10.50;99.90;;;;;;5388798;26;20013;-76
2024/04/19 07:23:24;;;;;;;12.80;4.45;;;10.50;99.90;;;;;;5417997;26;19994;-79
2024/04/19 07:25:50;;;;;;;9.30;3.25;;;10.60;99.90;;;;;;5417752;26;20430;-78
2024/04/19 07:28:17;;;;;;;10.88;3.47;;;10.70;99.90;;;;;;5447993;25;19998;-78
2024/04/19 07:30:43;;;;;;;15.00;4.60;;;10.70;99.90;;;;;;5435742;26;20829;-78
2024/04/19 07:33:10;;;;;;;9.10;3.30;;;10.70;99.90;;;;;;5432622;26;20021;-75
2024/04/19 07:35:37;;;;;;;10.68;3.63;;;10.70;99.90;;;;;;5384837;26;20447;-77
2024/04/19 07:38:04;;;;;;;9.70;3.17;;;10.80;99.90;;;;;;5384365;26;20338;-74
2024/04/19 07:40:32;;;;;;;14.52;4.35;;;10.80;99.90;;;;;;5417025;26;20021;-74
2024/04/19 07:42:59;;;;;;;7.82;3.15;;;10.80;99.90;;;;;;5418478;26;20457;-80
2024/04/19 07:45:25;;;;;;;10.40;3.75;;;10.70;99.90;;;;;;5387602;26;20006;-78
2024/04/19 07:47:55;;;;;;;13.93;4.20;;;10.70;99.90;;;;;;5432821;26;22278;-80
2024/04/19 07:50:21;;;;;;;11.88;3.13;;;10.60;99.90;;;;;;5466354;25;19999;-77
2024/04/19 07:52:48;;;;;;;8.75;2.20;;;10.40;99.90;;;;;;5453930;25;20002;-78
2024/04/19 07:55:17;;;;;;;7.70;1.70;;;10.30;99.90;;;;;;5418895;26;20010;-81
2024/04/19 07:57:48;;;;;;;5.50;1.20;;;10.10;99.90;;;;;;5419486;26;20337;-81
2024/04/19 08:00:17;;;;;;;3.88;1.40;;;9.90;99.90;;;;;;5393360;26;20453;-80
2024/04/19 08:02:44;;;;;;;8.15;2.20;;;9.70;99.90;;;;;;5418508;26;20010;-81
2024/04/19 08:05:11;;;;;;;7.22;1.55;;;9.70;99.90;;;;;;5398875;26;19998;-79
2024/04/19 08:07:37;;;;;;;4.35;0.57;;;9.60;99.90;;;;;;5408562;26;20006;-78
2024/04/19 08:10:05;;;;;;;6.45;0.70;;;9.50;99.90;;;;;;5437078;26;20892;-78
2024/04/19 08:12:31;;;;;;;7.13;0.80;;;9.50;99.90;;;;;;5390698;26;20020;-79
2024/04/19 08:14:58;;;;;;;3.25;0.80;;;9.50;99.90;;;;;;5444234;26;20002;-81
2024/04/19 08:17:24;;;;;;;5.03;0.70;;;9.40;99.90;;;;;;5362716;26;20437;-80
2024/04/19 08:19:50;;;;;;;8.38;1.33;;;9.40;99.90;;;;;;5391757;26;20006;-80
2024/04/19 08:22:17;;;;;;;5.53;0.85;;;9.50;99.90;;;;;;5417840;26;20009;-80
2024/04/19 08:24:43;;;;;;;3.10;0.50;;;9.60;99.90;;;;;;5407108;26;20451;-81
2024/04/19 08:27:12;;;;;;;3.72;0.80;;;9.60;99.90;;;;;;5404865;26;20002;-83
2024/04/19 08:29:39;;;;;;;3.60;0.73;;;9.70;99.90;;;;;;5392464;26;20006;-80
2024/04/19 08:32:06;;;;;;;2.88;0.90;;;9.80;99.90;;;;;;5431490;26;20583;-83
2024/04/19 08:34:32;;;;;;;2.60;0.55;;;10.00;99.90;;;;;;5428012;26;21328;-83
2024/04/19 08:37:01;;;;;;;5.22;0.57;;;10.00;99.90;;;;;;5372084;26;20021;-86
2024/04/19 08:39:28;;;;;;;6.45;1.10;;;10.10;99.90;;;;;;5430610;26;20006;-82
2024/04/19 08:42:03;;;;;;;3.10;1.20;;;10.20;99.90;;;;;;5442048;26;20014;-83
2024/04/19 08:44:30;;;;;;;4.45;1.40;;;10.30;99.90;;;;;;5469702;26;20012;-91
2024/04/19 08:46:57;;;;;;;7.82;2.70;;;10.30;99.90;;;;;;5392679;26;20016;-88
2024/04/19 08:49:26;;;;;;;8.45;2.25;;;10.40;99.90;;;;;;5376723;26;20786;-80
2024/04/19 08:51:54;;;;;;;6.72;2.25;;;10.50;99.90;;;;;;5482393;25;20006;-89
2024/04/19 08:54:21;;;;;;;4.80;1.30;;;10.60;99.90;;;;;;5434224;26;20024;-87
2024/04/19 08:56:50;;;;;;;3.67;0.70;;;10.60;99.90;;;;;;5375704;26;20006;-91
2024/04/19 08:59:18;;;;;;;3.28;0.68;;;10.60;99.90;;;;;;5395458;26;20017;-79
2024/04/19 09:01:44;;;;;;;5.68;0.55;;;10.50;99.90;;;;;;5410579;26;20006;-83
2024/04/19 09:04:11;;;;;;;2.80;0.40;;;10.60;99.90;;;;;;5396844;26;20425;-76
2024/04/19 09:06:38;;;;;;;6.45;0.50;;;10.70;99.90;;;;;;5424343;26;20007;-78
2024/04/19 09:09:04;;;;;;;4.47;0.50;;;10.80;99.90;;;;;;5392355;26;20017;-78
2024/04/19 09:11:31;;;;;;;1.50;0.60;;;10.90;99.90;;;;;;5382714;26;20006;-77
2024/04/19 09:13:57;;;;;;;5.00;1.35;;;10.90;99.90;;;;;;5415256;26;20163;-80
2024/04/19 09:16:23;;;;;;;4.55;0.50;;;10.90;99.90;;;;;;5411946;26;20686;-78
2024/04/19 09:18:50;;;;;;;2.67;0.52;;;10.80;99.90;;;;;;5407828;26;20006;-78
2024/04/19 09:21:17;;;;;;;1.95;0.50;;;10.80;99.90;;;;;;5381014;26;20346;-78
2024/04/19 09:23:43;;;;;;;5.57;0.60;;;10.70;99.90;;;;;;5430797;26;20002;-78
2024/04/19 09:26:10;;;;;;;3.08;0.50;;;10.70;99.90;;;;;;5431055;26;20021;-77
2024/04/19 09:28:37;;;;;;;5.75;0.60;;;10.50;99.90;;;;;;5395877;26;22472;-80
2024/04/19 09:31:04;;;;;;;2.28;0.50;;;10.40;99.90;;;;;;5379897;26;20320;-79
2024/04/19 09:33:30;;;;;;;1.75;0.40;;;10.30;99.90;;;;;;5379536;26;20372;-80
2024/04/19 09:35:58;;;;;;;1.85;0.40;;;10.20;99.90;;;;;;5382675;26;20386;-80
2024/04/19 09:38:25;;;;;;;4.15;0.60;;;10.20;99.90;;;;;;5412859;26;19998;-79
2024/04/19 09:40:51;;;;;;;1.88;0.50;;;10.40;99.90;;;;;;5414749;26;20006;-80
2024/04/19 09:43:22;;;;;;;1.40;0.40;;;10.60;99.90;;;;;;5401543;26;20005;-78
2024/04/19 09:45:59;;;;;;;3.75;0.40;;;10.80;99.90;;;;;;5428768;26;21050;-80
2024/04/19 09:48:30;;;;;;;2.55;0.30;;;10.90;99.90;;;;;;5386337;26;20519;-79
2024/04/19 09:50:58;;;;;;;2.57;0.40;;;10.90;99.90;;;;;;5408829;26;20344;-77
2024/04/19 09:53:37;;;;;;;1.13;0.30;;;11.00;99.90;;;;;;5410034;26;20376;-79
2024/04/19 09:56:25;;;;;;;2.10;0.38;;;11.10;99.90;;;;;;5381797;26;20002;-79
2024/04/19 09:58:52;;;;;;;3.80;0.40;;;11.40;99.90;;;;;;5384513;26;20006;-79
2024/04/19 10:01:19;;;;;;;1.63;0.30;;;11.50;99.90;;;;;;5399447;26;21309;-78
2024/04/19 10:03:47;;;;;;;2.65;0.22;;;11.50;99.90;;;;;;5404529;26;20002;-78
2024/04/19 10:06:13;;;;;;;1.40;0.20;;;11.40;99.90;;;;;;5420268;26;20481;-77
2024/04/19 10:08:42;;;;;;;2.55;0.30;;;11.30;99.90;;;;;;5387887;26;19998;-76
2024/04/19 10:11:09;;;;;;;2.72;0.30;;;11.40;99.90;;;;;;5415166;26;20376;-79
2024/04/19 10:13:36;;;;;;;3.88;0.50;;;11.50;99.90;;;;;;5356223;26;19998;-77
2024/04/19 10:16:02;;;;;;;0.77;0.30;;;11.80;99.90;;;;;;5353809;26;20001;-78
2024/04/19 10:18:34;;;;;;;0.88;0.30;;;12.10;99.90;;;;;;5390268;26;20006;-78
2024/04/19 10:21:01;;;;;;;2.20;0.60;;;12.30;99.90;;;;;;5401270;26;20014;-76
2024/04/19 10:23:30;;;;;;;1.77;0.30;;;12.50;99.90;;;;;;5424408;26;20647;-77
2024/04/19 10:26:00;;;;;;;0.93;0.20;;;12.50;99.90;;;;;;5382180;26;20006;-77
2024/04/19 10:28:30;;;;;;;1.05;0.20;;;12.30;99.90;;;;;;5410517;26;19998;-77
2024/04/19 10:30:57;;;;;;;1.45;0.30;;;12.30;99.90;;;;;;5356732;26;20108;-76
2024/04/19 10:33:25;;;;;;;1.75;0.30;;;12.40;99.90;;;;;;5413853;26;23883;-76
2024/04/19 10:35:52;;;;;;;2.20;0.28;;;12.30;99.90;;;;;;5383161;26;20006;-77
2024/04/19 10:38:19;;;;;;;4.30;0.30;;;12.20;99.90;;;;;;5427965;26;19998;-78
2024/04/19 10:40:46;;;;;;;1.05;0.25;;;12.10;99.90;;;;;;5428675;26;20010;-77
2024/04/19 10:43:12;;;;;;;1.10;0.13;;;12.00;99.90;;;;;;5421701;26;20022;-78
2024/04/19 10:45:39;;;;;;;0.88;0.20;;;11.90;99.90;;;;;;5382457;26;20005;-76
2024/04/19 10:48:06;;;;;;;2.17;0.22;;;11.70;99.90;;;;;;5348425;26;20017;-78
2024/04/19 10:50:33;;;;;;;1.33;0.20;;;11.40;99.90;;;;;;5380862;26;20006;-79
2024/04/19 10:53:00;;;;;;;1.80;0.47;;;11.10;99.90;;;;;;5411798;26;20481;-81
2024/04/19 10:55:27;;;;;;;2.15;0.32;;;10.70;99.90;;;;;;5413372;26;20021;-78
2024/04/19 10:57:55;;;;;;;1.83;0.40;;;10.50;99.90;;;;;;5414142;26;20010;-78
2024/04/19 11:00:22;;;;;;;4.28;0.43;;;10.30;99.90;;;;;;5482531;25;20018;-80
2024/04/19 11:02:49;;;;;;;2.40;0.20;;;10.20;99.90;;;;;;5451905;25;20002;-77
2024/04/19 11:05:15;;;;;;;1.40;0.40;;;10.00;99.90;;;;;;5417636;26;20017;-78
2024/04/19 11:07:42;;;;;;;1.65;0.30;;;9.90;99.90;;;;;;5379301;26;21599;-78
2024/04/19 11:10:09;;;;;;;1.45;0.30;;;9.70;99.90;;;;;;5411975;26;20006;-77
2024/04/19 11:12:36;;;;;;;1.58;0.20;;;9.60;99.90;;;;;;5355493;26;20584;-77
2024/04/19 11:15:03;;;;;;;1.80;0.20;;;9.40;99.90;;;;;;5412762;26;20010;-75
2024/04/19 11:17:32;;;;;;;1.27;0.20;;;9.30;99.90;;;;;;5426002;26;20013;-76
2024/04/19 11:19:58;;;;;;;2.80;0.17;;;9.30;99.90;;;;;;5430555;26;20438;-77
2024/04/19 11:22:25;;;;;;;0.75;0.20;;;9.20;99.90;;;;;;5360126;26;20006;-76
2024/04/19 11:24:54;;;;;;;2.70;0.35;;;9.30;99.90;;;;;;5408961;26;20465;-76
2024/04/19 11:27:21;;;;;;;0.98;0.30;;;9.50;99.90;;;;;;5351327;26;20017;-76
2024/04/19 11:29:49;;;;;;;1.42;0.30;;;9.80;99.90;;;;;;5408636;26;20049;-78
2024/04/19 11:32:15;;;;;;;1.60;0.38;;;10.10;99.90;;;;;;5407944;26;20996;-78
2024/04/19 11:34:48;;;;;;;3.53;0.60;;;10.50;99.90;;;;;;5410338;26;20404;-75
2024/04/19 11:37:16;;;;;;;1.85;0.30;;;11.10;99.90;;;;;;5394931;26;20017;-76
2024/04/19 11:39:45;;;;;;;2.40;0.30;;;11.40;99.90;;;;;;5417671;26;20025;-78
2024/04/19 11:42:12;;;;;;;1.88;0.30;;;11.30;99.90;;;;;;5410577;26;20025;-75
2024/04/19 11:44:39;;;;;;;0.95;0.28;;;11.30;99.90;;;;;;5381674;26;20002;-78
2024/04/19 11:47:05;;;;;;;2.10;0.25;;;11.20;99.90;;;;;;5381518;26;20010;-76
2024/04/19 11:49:32;;;;;;;1.45;0.20;;;11.10;99.90;;;;;;5354694;26;20590;-77
2024/04/19 11:51:58;;;;;;;2.75;0.30;;;11.10;99.90;;;;;;5383999;26;20006;-76
2024/04/19 11:54:27;;;;;;;2.55;0.30;;;11.10;99.90;;;;;;5420683;26;20743;-75
2024/04/19 11:56:54;;;;;;;3.92;0.40;;;11.20;99.90;;;;;;5398054;26;20002;-77
2024/04/19 11:59:20;;;;;;;3.53;0.40;;;11.10;99.90;;;;;;5394818;26;20072;-76
2024/04/19 12:01:47;;;;;;;3.30;0.38;;;11.00;99.90;;;;;;5360722;26;20003;-77
2024/04/19 12:04:13;;;;;;;2.97;0.50;;;10.80;99.90;;;;;;5409754;26;21238;-76
2024/04/19 12:06:40;;;;;;;2.42;0.25;;;10.70;99.90;;;;;;5374928;26;20010;-77
2024/04/19 12:09:07;;;;;;;2.45;0.25;;;10.70;99.90;;;;;;5407680;26;19999;-77
2024/04/19 12:11:33;;;;;;;2.10;0.40;;;10.90;99.90;;;;;;5354793;26;20055;-78
2024/04/19 12:13:59;;;;;;;3.35;0.40;;;11.30;99.90;;;;;;5420404;26;20006;-77
2024/04/19 12:16:26;;;;;;;2.88;0.40;;;12.20;99.90;;;;;;5398996;26;20002;-76
2024/04/19 12:18:52;;;;;;;5.15;0.40;;;12.60;99.90;;;;;;5387031;26;22938;-76
2024/04/19 12:21:18;;;;;;;2.85;0.30;;;12.90;99.90;;;;;;5409735;26;21635;-76
2024/04/19 12:23:45;;;;;;;1.50;0.30;;;13.00;99.90;;;;;;5382756;26;20010;-77
2024/04/19 12:26:11;;;;;;;3.47;0.30;;;13.00;99.90;;;;;;5378863;26;20002;-77
2024/04/19 12:28:38;;;;;;;3.00;0.70;;;12.70;99.90;;;;;;5403980;26;21130;-77
2024/04/19 12:31:04;;;;;;;3.65;0.28;;;12.40;99.90;;;;;;5424265;26;20811;-76
2024/04/19 12:33:31;;;;;;;2.13;0.40;;;12.00;99.90;;;;;;5398760;26;21611;-77
2024/04/19 12:35:57;;;;;;;2.38;0.20;;;11.60;99.90;;;;;;5415974;26;20002;-76
2024/04/19 12:38:24;;;;;;;3.67;0.30;;;11.50;99.90;;;;;;5412654;26;20803;-75
2024/04/19 12:40:51;;;;;;;4.18;0.20;;;11.40;99.90;;;;;;5437858;26;20034;-78
2024/04/19 12:43:17;;;;;;;3.08;0.60;;;11.30;99.90;;;;;;5379438;26;20012;-78
2024/04/19 12:45:47;;;;;;;1.98;0.30;;;11.10;99.90;;;;;;5413073;26;21072;-79
2024/04/19 12:48:13;;;;;;;6.05;0.70;;;10.90;99.90;;;;;;5385548;26;20345;-77
2024/04/19 12:50:40;;;;;;;3.30;0.32;;;10.80;99.90;;;;;;5433354;26;20008;-80
2024/04/19 12:53:06;;;;;;;6.82;2.33;;;10.60;99.90;;;;;;5417224;26;23318;-81